Time;durP1;ratioP1;P1;durP2;ratioP2;P2;SDS_P1;SDS_P2;PMS_P1;PMS_P2;Temp;Humidity;BMP_temperature;BMP_pressure;BME280_temperature;BME280_humidity;BME280_pressure;Samples;Min_cycle;Max_cycle;Signal;HPM_P1;HPM_P2
2023/12/08 00:00:31;;;;;;;1999.90;999.90;;;;;;;;;;5062587;28;20048;-91
2023/12/08 00:02:57;;;;;;;1999.90;999.90;;;;;;;;;;5063425;28;20055;-91
2023/12/08 00:05:24;;;;;;;1999.90;999.90;;;;;;;;;;5067973;28;20050;-91
2023/12/08 00:07:50;;;;;;;1999.90;999.90;;;;;;;;;;5067931;28;20076;-90
2023/12/08 00:10:17;;;;;;;1999.90;999.90;;;;;;;;;;5073340;28;20048;-90
2023/12/08 00:12:45;;;;;;;1999.90;999.90;;;;;;;;;;5075260;28;20051;-91
2023/12/08 00:15:12;;;;;;;1999.90;999.90;;;;;;;;;;5064553;28;20053;-91
2023/12/08 00:17:38;;;;;;;1999.90;999.90;;;;;;;;;;5063508;28;20505;-93
2023/12/08 00:20:06;;;;;;;1999.90;999.90;;;;;;;;;;5065839;28;20064;-91
2023/12/08 00:22:33;;;;;;;1999.90;999.90;;;;;;;;;;5063550;28;20048;-90
2023/12/08 00:24:59;;;;;;;1999.90;999.90;;;;;;;;;;5065360;28;20063;-91
2023/12/08 00:27:26;;;;;;;1999.90;999.90;;;;;;;;;;5064893;28;20055;-92
2023/12/08 00:29:54;;;;;;;1999.90;999.90;;;;;;;;;;5065681;28;20045;-90
2023/12/08 00:32:20;;;;;;;1999.90;999.90;;;;;;;;;;5069643;28;20475;-91
2023/12/08 00:34:47;;;;;;;1999.90;999.90;;;;;;;;;;5063080;28;20068;-92
2023/12/08 00:37:14;;;;;;;1999.90;999.90;;;;;;;;;;5064854;28;20063;-91
2023/12/08 00:39:40;;;;;;;1999.90;999.90;;;;;;;;;;5062073;28;20044;-90
2023/12/08 00:42:07;;;;;;;1999.90;999.90;;;;;;;;;;5066058;28;20049;-92
2023/12/08 00:44:33;;;;;;;1999.90;999.90;;;;;;;;;;5071838;28;20055;-92
2023/12/08 00:47:02;;;;;;;1999.90;999.90;;;;;;;;;;5068877;28;20059;-92
2023/12/08 00:49:28;;;;;;;1999.90;999.90;;;;;;;;;;5063612;28;20282;-91
2023/12/08 00:51:55;;;;;;;1999.90;999.90;;;;;;;;;;5066572;28;20049;-92
2023/12/08 00:54:22;;;;;;;1999.90;999.90;;;;;;;;;;5073150;28;20415;-92
2023/12/08 00:56:48;;;;;;;1999.90;999.90;;;;;;;;;;5067556;28;20083;-90
2023/12/08 00:59:15;;;;;;;1999.90;999.90;;;;;;;;;;5072242;28;20045;-92
2023/12/08 01:01:41;;;;;;;1999.90;999.90;;;;;;;;;;5069029;28;20132;-91
2023/12/08 01:04:09;;;;;;;1999.90;999.90;;;;;;;;;;5062991;28;20060;-91
2023/12/08 01:06:36;;;;;;;1999.90;999.90;;;;;;;;;;5073383;28;20135;-91
2023/12/08 01:09:02;;;;;;;1999.90;999.90;;;;;;;;;;5064149;28;20072;-92
2023/12/08 01:11:29;;;;;;;1999.90;999.90;;;;;;;;;;5068157;28;20512;-92
2023/12/08 01:13:55;;;;;;;1999.90;999.90;;;;;;;;;;5062666;28;20048;-92
2023/12/08 01:16:22;;;;;;;1999.90;999.90;;;;;;;;;;5067913;28;20045;-92
2023/12/08 01:18:49;;;;;;;1999.90;999.90;;;;;;;;;;5062708;28;20070;-93
2023/12/08 01:21:16;;;;;;;1999.90;999.90;;;;;;;;;;5062332;28;20598;-92
2023/12/08 01:23:43;;;;;;;1999.90;999.90;;;;;;;;;;5067473;28;20132;-91
2023/12/08 01:26:10;;;;;;;1999.90;999.90;;;;;;;;;;5058494;28;20045;-92
2023/12/08 01:28:36;;;;;;;1999.90;999.90;;;;;;;;;;5071306;28;20516;-91
2023/12/08 01:31:03;;;;;;;1999.90;999.90;;;;;;;;;;5064032;28;20044;-92
2023/12/08 01:33:30;;;;;;;1999.90;999.90;;;;;;;;;;5062814;28;20040;-92
2023/12/08 01:35:56;;;;;;;1999.90;999.90;;;;;;;;;;5067935;28;20064;-92
2023/12/08 01:38:24;;;;;;;1999.90;999.90;;;;;;;;;;5065645;28;20047;-91
2023/12/08 01:40:51;;;;;;;1999.90;999.90;;;;;;;;;;5064296;28;20055;-92
2023/12/08 01:43:18;;;;;;;1999.90;999.90;;;;;;;;;;5064226;28;20068;-92
2023/12/08 01:45:44;;;;;;;1999.90;999.90;;;;;;;;;;5065524;28;20537;-92
2023/12/08 01:48:11;;;;;;;1999.90;999.90;;;;;;;;;;5061361;28;20053;-91
2023/12/08 01:50:38;;;;;;;1999.90;999.90;;;;;;;;;;5066009;28;20056;-91
2023/12/08 01:53:06;;;;;;;1999.90;999.90;;;;;;;;;;5061692;28;20070;-91
2023/12/08 01:55:34;;;;;;;1999.90;999.90;;;;;;;;;;5063520;28;20048;-92
2023/12/08 01:58:01;;;;;;;1999.90;999.90;;;;;;;;;;5062677;28;20045;-92
2023/12/08 02:00:28;;;;;;;1999.90;999.90;;;;;;;;;;5065268;28;20054;-91
2023/12/08 02:02:54;;;;;;;1999.90;999.90;;;;;;;;;;5059624;28;20114;-91
2023/12/08 02:05:21;;;;;;;1999.90;999.90;;;;;;;;;;5064392;28;20603;-90
2023/12/08 02:07:48;;;;;;;1999.90;999.90;;;;;;;;;;5062346;28;20055;-92
2023/12/08 02:10:15;;;;;;;1999.90;999.90;;;;;;;;;;5058230;28;20059;-90
2023/12/08 02:12:42;;;;;;;1999.90;999.90;;;;;;;;;;5070249;28;20036;-92
2023/12/08 02:15:11;;;;;;;1999.90;999.90;;;;;;;;;;5060348;28;20044;-92
2023/12/08 02:17:39;;;;;;;1999.90;999.90;;;;;;;;;;5069463;28;20472;-92
2023/12/08 02:20:07;;;;;;;1999.90;999.90;;;;;;;;;;5069001;28;20045;-93
2023/12/08 02:22:34;;;;;;;1999.90;999.90;;;;;;;;;;5061702;28;20095;-91
2023/12/08 02:25:02;;;;;;;1999.90;999.90;;;;;;;;;;5084235;28;20044;-89
2023/12/08 02:27:28;;;;;;;1999.90;999.90;;;;;;;;;;5087296;28;20033;-90
2023/12/08 02:29:55;;;;;;;1999.90;999.90;;;;;;;;;;5087965;28;20100;-90
2023/12/08 02:32:26;;;;;;;1999.90;999.90;;;;;;;;;;5079598;28;20040;-90
2023/12/08 02:34:53;;;;;;;1999.90;999.90;;;;;;;;;;5086536;28;20048;-90
2023/12/08 02:37:21;;;;;;;1999.90;999.90;;;;;;;;;;5076160;28;20051;-92
2023/12/08 02:39:48;;;;;;;1999.90;999.90;;;;;;;;;;5062670;28;20057;-90
2023/12/08 02:42:17;;;;;;;1999.90;999.90;;;;;;;;;;5067347;28;20052;-91
2023/12/08 02:44:44;;;;;;;1999.90;999.90;;;;;;;;;;5066388;28;20052;-92
2023/12/08 02:47:11;;;;;;;1999.90;999.90;;;;;;;;;;5059967;28;20053;-91
2023/12/08 02:49:37;;;;;;;1999.90;999.90;;;;;;;;;;5063651;28;20045;-91
2023/12/08 02:52:04;;;;;;;1999.90;999.90;;;;;;;;;;5063853;28;20507;-92
2023/12/08 02:54:30;;;;;;;1999.90;999.90;;;;;;;;;;5063219;28;20409;-92
2023/12/08 02:56:57;;;;;;;1999.90;999.90;;;;;;;;;;5066599;28;20052;-92
2023/12/08 02:59:25;;;;;;;1999.90;999.90;;;;;;;;;;5067943;28;20394;-93
2023/12/08 03:01:51;;;;;;;1999.90;999.90;;;;;;;;;;5065792;28;20413;-91
2023/12/08 03:04:18;;;;;;;1999.90;999.90;;;;;;;;;;5066017;28;20387;-90
2023/12/08 03:06:44;;;;;;;1999.90;999.90;;;;;;;;;;5066353;28;20052;-91
2023/12/08 03:09:11;;;;;;;1999.90;999.90;;;;;;;;;;5067857;28;20049;-91
2023/12/08 03:11:37;;;;;;;1999.90;999.90;;;;;;;;;;5061773;28;20056;-90
2023/12/08 03:14:04;;;;;;;1999.90;999.90;;;;;;;;;;5066711;28;20477;-89
2023/12/08 03:16:32;;;;;;;1999.90;999.90;;;;;;;;;;5065464;28;20048;-90
2023/12/08 03:18:58;;;;;;;1999.90;999.90;;;;;;;;;;5064425;28;20044;-90
2023/12/08 03:21:26;;;;;;;1999.90;999.90;;;;;;;;;;5061362;28;20048;-90
2023/12/08 03:23:53;;;;;;;1999.90;999.90;;;;;;;;;;5058923;28;20051;-90
2023/12/08 03:26:20;;;;;;;1999.90;999.90;;;;;;;;;;5070360;28;20048;-89
2023/12/08 03:28:47;;;;;;;1999.90;999.90;;;;;;;;;;5069578;28;20059;-90
2023/12/08 03:31:22;;;;;;;1999.90;999.90;;;;;;;;;;5074570;28;20051;-90
2023/12/08 03:33:50;;;;;;;1999.90;999.90;;;;;;;;;;5072999;28;20052;-90
2023/12/08 03:36:16;;;;;;;1999.90;999.90;;;;;;;;;;5071940;28;20408;-89
2023/12/08 03:38:43;;;;;;;1999.90;999.90;;;;;;;;;;5075541;28;20051;-89
2023/12/08 03:41:10;;;;;;;1999.90;999.90;;;;;;;;;;5077821;28;20053;-89
2023/12/08 03:43:37;;;;;;;1999.90;999.90;;;;;;;;;;5076337;28;20070;-90
2023/12/08 03:46:03;;;;;;;1999.90;999.90;;;;;;;;;;5067632;28;20040;-89
2023/12/08 03:48:30;;;;;;;1999.90;999.90;;;;;;;;;;5068594;28;20049;-90
2023/12/08 03:50:58;;;;;;;1999.90;999.90;;;;;;;;;;5065740;28;20053;-90
2023/12/08 03:53:25;;;;;;;1999.90;999.90;;;;;;;;;;5065637;28;20045;-89
2023/12/08 03:55:51;;;;;;;1999.90;999.90;;;;;;;;;;5067109;28;20048;-89
2023/12/08 03:58:18;;;;;;;1999.90;999.90;;;;;;;;;;5065476;28;20051;-90
2023/12/08 04:00:44;;;;;;;1999.90;999.90;;;;;;;;;;5069238;28;20059;-90
2023/12/08 04:03:11;;;;;;;1999.90;999.90;;;;;;;;;;5066870;28;20056;-89
2023/12/08 04:05:37;;;;;;;1999.90;999.90;;;;;;;;;;5064379;28;20497;-90
2023/12/08 04:08:05;;;;;;;1999.90;999.90;;;;;;;;;;5067456;28;20044;-89
2023/12/08 04:10:32;;;;;;;1999.90;999.90;;;;;;;;;;5061620;28;20040;-89
2023/12/08 04:12:58;;;;;;;1999.90;999.90;;;;;;;;;;5065564;28;20498;-89
2023/12/08 04:15:25;;;;;;;1999.90;999.90;;;;;;;;;;5074503;28;20049;-89
2023/12/08 04:17:52;;;;;;;1999.90;999.90;;;;;;;;;;5062424;28;20044;-89
2023/12/08 04:20:19;;;;;;;1999.90;999.90;;;;;;;;;;5070710;28;20049;-89
2023/12/08 04:22:45;;;;;;;1999.90;999.90;;;;;;;;;;5069030;28;20380;-89
2023/12/08 04:25:13;;;;;;;1999.90;999.90;;;;;;;;;;5060185;28;20049;-91
2023/12/08 04:27:40;;;;;;;1999.90;999.90;;;;;;;;;;5063731;28;20048;-90
2023/12/08 04:30:07;;;;;;;1999.90;999.90;;;;;;;;;;5065763;28;20052;-91
2023/12/08 04:32:35;;;;;;;1999.90;999.90;;;;;;;;;;5070916;28;20052;-89
2023/12/08 04:35:01;;;;;;;1999.90;999.90;;;;;;;;;;5063518;28;20061;-90
2023/12/08 04:37:28;;;;;;;1999.90;999.90;;;;;;;;;;5063425;28;20056;-89
2023/12/08 04:39:54;;;;;;;1999.90;999.90;;;;;;;;;;5064685;28;20065;-90
2023/12/08 04:42:22;;;;;;;1999.90;999.90;;;;;;;;;;5071567;28;20036;-90
2023/12/08 04:44:49;;;;;;;1999.90;999.90;;;;;;;;;;5069759;28;20056;-91
2023/12/08 04:47:15;;;;;;;1999.90;999.90;;;;;;;;;;5065701;28;20052;-90
2023/12/08 04:49:42;;;;;;;1999.90;999.90;;;;;;;;;;5067371;28;20390;-89
2023/12/08 04:52:08;;;;;;;1999.90;999.90;;;;;;;;;;5066075;28;20054;-90
2023/12/08 04:54:35;;;;;;;1999.90;999.90;;;;;;;;;;5066678;28;20044;-89
2023/12/08 04:57:02;;;;;;;1999.90;999.90;;;;;;;;;;5075327;28;20049;-89
2023/12/08 04:59:30;;;;;;;1999.90;999.90;;;;;;;;;;5061086;28;20047;-90
2023/12/08 05:01:56;;;;;;;1999.90;999.90;;;;;;;;;;5067792;28;20408;-89
2023/12/08 05:04:23;;;;;;;1999.90;999.90;;;;;;;;;;5066873;28;20499;-89
2023/12/08 05:06:50;;;;;;;1999.90;999.90;;;;;;;;;;5066097;28;20410;-89
2023/12/08 05:09:16;;;;;;;1999.90;999.90;;;;;;;;;;5067783;28;20420;-89
2023/12/08 05:11:43;;;;;;;1999.90;999.90;;;;;;;;;;5066577;28;20044;-89
2023/12/08 05:14:09;;;;;;;1999.90;999.90;;;;;;;;;;5065050;28;20045;-90
2023/12/08 05:16:37;;;;;;;1999.90;999.90;;;;;;;;;;5064984;28;20045;-89
2023/12/08 05:19:04;;;;;;;1999.90;999.90;;;;;;;;;;5070583;28;20412;-89
2023/12/08 05:21:31;;;;;;;1999.90;999.90;;;;;;;;;;5063878;28;20058;-89
2023/12/08 05:23:57;;;;;;;1999.90;999.90;;;;;;;;;;5062632;28;20045;-89
2023/12/08 05:26:25;;;;;;;1999.90;999.90;;;;;;;;;;5068767;28;20048;-89
2023/12/08 05:28:51;;;;;;;1999.90;999.90;;;;;;;;;;5069213;28;20052;-89
2023/12/08 05:31:18;;;;;;;1999.90;999.90;;;;;;;;;;5062618;28;20052;-89
2023/12/08 05:33:46;;;;;;;1999.90;999.90;;;;;;;;;;5063934;28;20892;-89
2023/12/08 05:36:13;;;;;;;1999.90;999.90;;;;;;;;;;5067985;28;20049;-89
2023/12/08 05:38:39;;;;;;;1999.90;999.90;;;;;;;;;;5065367;28;20048;-88
2023/12/08 05:41:07;;;;;;;1999.90;999.90;;;;;;;;;;5069336;28;20036;-89
2023/12/08 05:43:34;;;;;;;1999.90;999.90;;;;;;;;;;5064028;28;20055;-89
2023/12/08 05:46:00;;;;;;;1999.90;999.90;;;;;;;;;;5059667;28;20052;-89
2023/12/08 05:48:27;;;;;;;1999.90;999.90;;;;;;;;;;5061620;28;20041;-89
2023/12/08 05:50:55;;;;;;;1999.90;999.90;;;;;;;;;;5065617;28;20400;-89
2023/12/08 05:53:21;;;;;;;1999.90;999.90;;;;;;;;;;5061332;28;20142;-89
2023/12/08 05:55:48;;;;;;;1999.90;999.90;;;;;;;;;;5064017;28;20490;-90
2023/12/08 05:58:14;;;;;;;1999.90;999.90;;;;;;;;;;5059801;28;20052;-89
2023/12/08 06:00:41;;;;;;;1999.90;999.90;;;;;;;;;;5061628;28;20056;-89
2023/12/08 06:03:08;;;;;;;1999.90;999.90;;;;;;;;;;5066000;28;20048;-89
2023/12/08 06:05:35;;;;;;;1999.90;999.90;;;;;;;;;;5060726;28;20044;-88
2023/12/08 06:08:02;;;;;;;1999.90;999.90;;;;;;;;;;5060521;28;20060;-89
2023/12/08 06:10:29;;;;;;;1999.90;999.90;;;;;;;;;;5064603;28;20051;-89
2023/12/08 06:12:56;;;;;;;1999.90;999.90;;;;;;;;;;5060178;28;20072;-88
2023/12/08 06:15:22;;;;;;;1999.90;999.90;;;;;;;;;;5062538;28;20485;-88
2023/12/08 06:17:49;;;;;;;1999.90;999.90;;;;;;;;;;5063590;28;20044;-88
2023/12/08 06:20:16;;;;;;;1999.90;999.90;;;;;;;;;;5061514;28;20486;-88
2023/12/08 06:22:43;;;;;;;1999.90;999.90;;;;;;;;;;5059344;28;20052;-88
2023/12/08 06:25:11;;;;;;;1999.90;999.90;;;;;;;;;;5063078;28;20052;-90
2023/12/08 06:27:37;;;;;;;1999.90;999.90;;;;;;;;;;5064427;28;20044;-89
2023/12/08 06:30:05;;;;;;;1999.90;999.90;;;;;;;;;;5063448;28;20052;-88
2023/12/08 06:32:32;;;;;;;1999.90;999.90;;;;;;;;;;5063111;28;20049;-89
2023/12/08 06:34:58;;;;;;;1999.90;999.90;;;;;;;;;;5062803;28;20052;-89
2023/12/08 06:37:25;;;;;;;1999.90;999.90;;;;;;;;;;5064910;28;20053;-88
2023/12/08 06:39:51;;;;;;;1999.90;999.90;;;;;;;;;;5061743;28;20055;-88
2023/12/08 06:42:19;;;;;;;1999.90;999.90;;;;;;;;;;5062565;28;20045;-88
2023/12/08 06:44:46;;;;;;;1999.90;999.90;;;;;;;;;;5057230;28;20044;-89
2023/12/08 06:47:12;;;;;;;1999.90;999.90;;;;;;;;;;5063337;28;20052;-89
2023/12/08 06:49:39;;;;;;;1999.90;999.90;;;;;;;;;;5062244;28;20477;-89
2023/12/08 06:52:06;;;;;;;1999.90;999.90;;;;;;;;;;5055833;28;20496;-88
2023/12/08 06:54:33;;;;;;;1999.90;999.90;;;;;;;;;;5064020;28;20044;-90
2023/12/08 06:56:59;;;;;;;1999.90;999.90;;;;;;;;;;5059400;28;20045;-88
2023/12/08 06:59:27;;;;;;;1999.90;999.90;;;;;;;;;;5065813;28;20123;-89
2023/12/08 07:01:54;;;;;;;1999.90;999.90;;;;;;;;;;5065819;28;20056;-88
2023/12/08 07:04:20;;;;;;;1999.90;999.90;;;;;;;;;;5061736;28;20050;-89
2023/12/08 07:06:47;;;;;;;1999.90;999.90;;;;;;;;;;5059172;28;20433;-90
2023/12/08 07:09:13;;;;;;;1999.90;999.90;;;;;;;;;;5067739;28;20083;-89
2023/12/08 07:11:40;;;;;;;1999.90;999.90;;;;;;;;;;5061956;28;20056;-87
2023/12/08 07:14:06;;;;;;;1999.90;999.90;;;;;;;;;;5066132;28;20134;-89
2023/12/08 07:16:34;;;;;;;1999.90;999.90;;;;;;;;;;5066678;28;20070;-89
2023/12/08 07:19:01;;;;;;;1999.90;999.90;;;;;;;;;;5068178;28;20053;-89
2023/12/08 07:21:27;;;;;;;1999.90;999.90;;;;;;;;;;5071653;28;20497;-89
2023/12/08 07:23:54;;;;;;;1999.90;999.90;;;;;;;;;;5060670;28;20041;-89
2023/12/08 07:26:20;;;;;;;1999.90;999.90;;;;;;;;;;5063593;28;20513;-88
2023/12/08 07:28:47;;;;;;;1999.90;999.90;;;;;;;;;;5061274;28;20056;-86
2023/12/08 07:31:13;;;;;;;1999.90;999.90;;;;;;;;;;5063740;28;20493;-86
2023/12/08 07:33:41;;;;;;;1999.90;999.90;;;;;;;;;;5062064;28;20052;-86
2023/12/08 07:36:08;;;;;;;1999.90;999.90;;;;;;;;;;5060691;28;20052;-85
2023/12/08 07:38:34;;;;;;;1999.90;999.90;;;;;;;;;;5067544;28;20052;-86
2023/12/08 07:41:01;;;;;;;1999.90;999.90;;;;;;;;;;5059663;28;20045;-86
2023/12/08 07:43:27;;;;;;;1999.90;999.90;;;;;;;;;;5061545;28;20040;-86
2023/12/08 07:45:54;;;;;;;1999.90;999.90;;;;;;;;;;5061330;28;20049;-87
2023/12/08 07:48:20;;;;;;;1999.90;999.90;;;;;;;;;;5060982;28;20128;-86
2023/12/08 07:50:48;;;;;;;1999.90;999.90;;;;;;;;;;5063555;28;20498;-86
2023/12/08 07:53:15;;;;;;;1999.90;999.90;;;;;;;;;;5060158;28;20047;-87
2023/12/08 07:55:42;;;;;;;1999.90;999.90;;;;;;;;;;5062159;28;20052;-87
2023/12/08 07:58:08;;;;;;;1999.90;999.90;;;;;;;;;;5063937;28;20044;-87
2023/12/08 08:00:35;;;;;;;1999.90;999.90;;;;;;;;;;5058933;28;20350;-86
2023/12/08 08:03:02;;;;;;;1999.90;999.90;;;;;;;;;;5063736;28;20273;-87
2023/12/08 08:05:29;;;;;;;1999.90;999.90;;;;;;;;;;5078302;28;20481;-87
2023/12/08 08:07:56;;;;;;;1999.90;999.90;;;;;;;;;;5062203;28;20059;-87
2023/12/08 08:10:23;;;;;;;1999.90;999.90;;;;;;;;;;5058461;28;20051;-87
2023/12/08 08:12:49;;;;;;;1999.90;999.90;;;;;;;;;;5060866;28;20059;-87
2023/12/08 08:15:16;;;;;;;1999.90;999.90;;;;;;;;;;5066816;28;20052;-87
2023/12/08 08:17:42;;;;;;;1999.90;999.90;;;;;;;;;;5060310;28;20049;-87
2023/12/08 08:20:10;;;;;;;1999.90;999.90;;;;;;;;;;5071335;28;20044;-87
2023/12/08 08:22:36;;;;;;;1999.90;999.90;;;;;;;;;;5066857;28;20054;-87
2023/12/08 08:25:06;;;;;;;1999.90;999.90;;;;;;;;;;5063376;28;20049;-88
2023/12/08 08:27:33;;;;;;;1999.90;999.90;;;;;;;;;;5065496;28;20049;-87
2023/12/08 08:30:00;;;;;;;1999.90;999.90;;;;;;;;;;5067346;28;20092;-87
2023/12/08 08:32:26;;;;;;;1999.90;999.90;;;;;;;;;;5067288;28;20441;-87
2023/12/08 08:34:53;;;;;;;1999.90;999.90;;;;;;;;;;5065570;28;20056;-87
2023/12/08 08:37:22;;;;;;;1999.90;999.90;;;;;;;;;;5066894;28;20083;-87
2023/12/08 08:39:49;;;;;;;1999.90;999.90;;;;;;;;;;5065559;28;20066;-87
2023/12/08 08:42:17;;;;;;;1999.90;999.90;;;;;;;;;;5061083;28;20044;-87
2023/12/08 08:44:44;;;;;;;1999.90;999.90;;;;;;;;;;5064829;28;20063;-87
2023/12/08 08:47:12;;;;;;;1999.90;999.90;;;;;;;;;;5065015;28;20048;-87
2023/12/08 08:49:38;;;;;;;1999.90;999.90;;;;;;;;;;5063739;28;20041;-87
2023/12/08 08:52:05;;;;;;;1999.90;999.90;;;;;;;;;;5068058;28;20040;-87
2023/12/08 08:54:32;;;;;;;1999.90;999.90;;;;;;;;;;5065047;28;20041;-87
2023/12/08 08:56:58;;;;;;;1999.90;999.90;;;;;;;;;;5064783;28;20048;-87
2023/12/08 08:59:26;;;;;;;1999.90;999.90;;;;;;;;;;5067729;28;20402;-87
2023/12/08 09:01:53;;;;;;;1999.90;999.90;;;;;;;;;;5064838;28;20049;-87
2023/12/08 09:04:19;;;;;;;1999.90;999.90;;;;;;;;;;5064695;28;20041;-86
2023/12/08 09:06:46;;;;;;;1999.90;999.90;;;;;;;;;;5064285;28;20051;-87
2023/12/08 09:09:12;;;;;;;1999.90;999.90;;;;;;;;;;5066367;28;20521;-86
2023/12/08 09:11:39;;;;;;;1999.90;999.90;;;;;;;;;;5071209;28;20063;-87
2023/12/08 09:14:05;;;;;;;1999.90;999.90;;;;;;;;;;5063458;28;20433;-87
2023/12/08 09:16:33;;;;;;;1999.90;999.90;;;;;;;;;;5060284;28;20048;-87
2023/12/08 09:19:00;;;;;;;1999.90;999.90;;;;;;;;;;5073843;28;20131;-85
2023/12/08 09:21:27;;;;;;;1999.90;999.90;;;;;;;;;;5064993;28;20055;-86
2023/12/08 09:23:53;;;;;;;1999.90;999.90;;;;;;;;;;5071363;28;20055;-86
2023/12/08 09:26:20;;;;;;;1999.90;999.90;;;;;;;;;;5064519;28;20067;-87
2023/12/08 09:28:46;;;;;;;1999.90;999.90;;;;;;;;;;5065282;28;20051;-87
2023/12/08 09:31:13;;;;;;;1999.90;999.90;;;;;;;;;;5063654;28;20041;-87
2023/12/08 09:33:41;;;;;;;1999.90;999.90;;;;;;;;;;5065821;28;20059;-86
2023/12/08 09:36:08;;;;;;;1999.90;999.90;;;;;;;;;;5069468;28;20064;-88
2023/12/08 09:38:35;;;;;;;1999.90;999.90;;;;;;;;;;5065644;28;20056;-87
2023/12/08 09:41:04;;;;;;;1999.90;999.90;;;;;;;;;;5063326;28;20098;-87
2023/12/08 09:43:35;;;;;;;1999.90;999.90;;;;;;;;;;5063824;28;20049;-87
2023/12/08 09:46:03;;;;;;;1999.90;999.90;;;;;;;;;;5062078;28;20059;-87
2023/12/08 09:48:30;;;;;;;1999.90;999.90;;;;;;;;;;5063728;28;20099;-88
2023/12/08 09:50:59;;;;;;;1999.90;999.90;;;;;;;;;;5063345;28;20048;-87
2023/12/08 09:53:27;;;;;;;1999.90;999.90;;;;;;;;;;5065498;28;20055;-87
2023/12/08 09:55:54;;;;;;;1999.90;999.90;;;;;;;;;;5059804;28;20056;-86
2023/12/08 09:58:22;;;;;;;1999.90;999.90;;;;;;;;;;5061276;28;20055;-88
2023/12/08 10:00:49;;;;;;;1999.90;999.90;;;;;;;;;;5065526;28;20064;-88
2023/12/08 10:03:16;;;;;;;1999.90;999.90;;;;;;;;;;5067116;28;20049;-87
2023/12/08 10:05:43;;;;;;;1999.90;999.90;;;;;;;;;;5061432;28;20071;-87
2023/12/08 10:08:10;;;;;;;1999.90;999.90;;;;;;;;;;5066695;28;20083;-87
2023/12/08 10:10:37;;;;;;;1999.90;999.90;;;;;;;;;;5062175;28;20128;-87
2023/12/08 10:13:04;;;;;;;1999.90;999.90;;;;;;;;;;5063724;28;20044;-86
2023/12/08 10:15:31;;;;;;;1999.90;999.90;;;;;;;;;;5070565;28;20045;-87
2023/12/08 10:17:58;;;;;;;1999.90;999.90;;;;;;;;;;5059818;28;20048;-88
2023/12/08 10:20:24;;;;;;;1999.90;999.90;;;;;;;;;;5066174;28;20043;-87
2023/12/08 10:22:53;;;;;;;1999.90;999.90;;;;;;;;;;5062213;28;20055;-87
2023/12/08 10:25:22;;;;;;;1999.90;999.90;;;;;;;;;;5064419;28;20067;-87
2023/12/08 10:27:50;;;;;;;1999.90;999.90;;;;;;;;;;5062113;28;20056;-87
2023/12/08 10:30:17;;;;;;;1999.90;999.90;;;;;;;;;;5060993;28;20048;-88
2023/12/08 10:32:44;;;;;;;1999.90;999.90;;;;;;;;;;5061005;28;20071;-88
2023/12/08 10:35:11;;;;;;;1999.90;999.90;;;;;;;;;;5057900;28;20067;-87
2023/12/08 10:37:38;;;;;;;1999.90;999.90;;;;;;;;;;5067243;28;20053;-87
2023/12/08 10:40:07;;;;;;;1999.90;999.90;;;;;;;;;;5060891;28;20041;-86
2023/12/08 10:42:35;;;;;;;1999.90;999.90;;;;;;;;;;5062256;28;20049;-87
2023/12/08 10:45:02;;;;;;;1999.90;999.90;;;;;;;;;;5062058;28;20049;-88
2023/12/08 10:47:28;;;;;;;1999.90;999.90;;;;;;;;;;5062349;28;20135;-87
2023/12/08 10:49:55;;;;;;;1999.90;999.90;;;;;;;;;;5062323;28;20048;-87
2023/12/08 10:52:22;;;;;;;1999.90;999.90;;;;;;;;;;5061202;28;20048;-88
2023/12/08 10:54:50;;;;;;;1999.90;999.90;;;;;;;;;;5056515;28;20489;-87
2023/12/08 10:57:16;;;;;;;1999.90;999.90;;;;;;;;;;5060898;28;20485;-88
2023/12/08 10:59:45;;;;;;;1999.90;999.90;;;;;;;;;;5061988;28;20036;-88
2023/12/08 11:02:19;;;;;;;1999.90;999.90;;;;;;;;;;5061607;28;20040;-88
2023/12/08 11:04:47;;;;;;;1999.90;999.90;;;;;;;;;;5059078;28;20048;-87
2023/12/08 11:07:18;;;;;;;1999.90;999.90;;;;;;;;;;5063533;28;20052;-85
2023/12/08 11:09:44;;;;;;;1999.90;999.90;;;;;;;;;;5062149;28;20055;-87
2023/12/08 11:12:14;;;;;;;1999.90;999.90;;;;;;;;;;5064102;28;20048;-88
2023/12/08 11:14:47;;;;;;;1999.90;999.90;;;;;;;;;;5062093;28;20048;-88
2023/12/08 11:17:19;;;;;;;1999.90;999.90;;;;;;;;;;5065353;28;20078;-88
2023/12/08 11:19:46;;;;;;;1999.90;999.90;;;;;;;;;;5055563;28;20044;-88
2023/12/08 11:22:12;;;;;;;1999.90;999.90;;;;;;;;;;5065839;28;20056;-89
2023/12/08 11:24:39;;;;;;;1999.90;999.90;;;;;;;;;;5057983;28;20051;-88
2023/12/08 11:27:09;;;;;;;1999.90;999.90;;;;;;;;;;5061500;28;20049;-89
2023/12/08 11:29:42;;;;;;;1999.90;999.90;;;;;;;;;;5063231;28;20049;-89
2023/12/08 11:32:19;;;;;;;1999.90;999.90;;;;;;;;;;5059825;28;20048;-90
2023/12/08 11:34:51;;;;;;;1999.90;999.90;;;;;;;;;;5063722;28;20106;-89
2023/12/08 11:37:18;;;;;;;1999.90;999.90;;;;;;;;;;5059531;28;20126;-88
2023/12/08 11:39:45;;;;;;;1999.90;999.90;;;;;;;;;;5063199;28;20052;-90
2023/12/08 11:42:13;;;;;;;1999.90;999.90;;;;;;;;;;5058536;28;20051;-90
2023/12/08 11:44:42;;;;;;;1999.90;999.90;;;;;;;;;;5060313;28;20048;-90
2023/12/08 11:47:14;;;;;;;1999.90;999.90;;;;;;;;;;5057036;28;20052;-88
2023/12/08 11:49:42;;;;;;;1999.90;999.90;;;;;;;;;;5064236;28;20048;-89
2023/12/08 11:52:12;;;;;;;1999.90;999.90;;;;;;;;;;5071168;28;20469;-91
2023/12/08 11:54:58;;;;;;;1999.90;999.90;;;;;;;;;;5063083;28;20049;-90
2023/12/08 11:57:25;;;;;;;1999.90;999.90;;;;;;;;;;5061928;28;20048;-89
2023/12/08 11:59:51;;;;;;;1999.90;999.90;;;;;;;;;;5062440;28;20127;-91
2023/12/08 12:02:19;;;;;;;1999.90;999.90;;;;;;;;;;5058608;28;20055;-91
2023/12/08 12:04:46;;;;;;;1999.90;999.90;;;;;;;;;;5061325;28;20049;-91
2023/12/08 12:07:13;;;;;;;1999.90;999.90;;;;;;;;;;5068426;28;20049;-90
2023/12/08 12:09:42;;;;;;;1999.90;999.90;;;;;;;;;;5061160;28;20049;-91
2023/12/08 12:12:14;;;;;;;1999.90;999.90;;;;;;;;;;5068108;28;20507;-89
2023/12/08 12:14:43;;;;;;;1999.90;999.90;;;;;;;;;;5059939;28;20037;-89
2023/12/08 12:17:10;;;;;;;1999.90;999.90;;;;;;;;;;5067454;28;20048;-90
2023/12/08 12:19:38;;;;;;;1999.90;999.90;;;;;;;;;;5065778;28;20052;-89
2023/12/08 12:22:05;;;;;;;1999.90;999.90;;;;;;;;;;5063281;28;20063;-91
2023/12/08 12:24:33;;;;;;;1999.90;999.90;;;;;;;;;;5064554;28;20084;-90
2023/12/08 12:26:59;;;;;;;1999.90;999.90;;;;;;;;;;5069273;28;20576;-91
2023/12/08 12:29:26;;;;;;;1999.90;999.90;;;;;;;;;;5067476;28;20059;-89
2023/12/08 12:31:54;;;;;;;1999.90;999.90;;;;;;;;;;5063329;28;20053;-92
2023/12/08 12:34:20;;;;;;;1999.90;999.90;;;;;;;;;;5068348;28;20056;-90
2023/12/08 12:36:49;;;;;;;1999.90;999.90;;;;;;;;;;5071198;28;20154;-91
2023/12/08 12:39:16;;;;;;;1999.90;999.90;;;;;;;;;;5073183;28;20044;-90
2023/12/08 12:41:42;;;;;;;1999.90;999.90;;;;;;;;;;5079758;28;20048;-93
2023/12/08 12:44:09;;;;;;;1999.90;999.90;;;;;;;;;;5073625;28;20063;-92
2023/12/08 12:46:36;;;;;;;1999.90;999.90;;;;;;;;;;5070773;28;20116;-90
2023/12/08 12:49:04;;;;;;;1999.90;999.90;;;;;;;;;;5080021;28;20044;-92
2023/12/08 12:51:34;;;;;;;1999.90;999.90;;;;;;;;;;5076217;28;20067;-92
2023/12/08 12:54:04;;;;;;;1999.90;999.90;;;;;;;;;;5076078;28;20047;-91
2023/12/08 12:56:32;;;;;;;1999.90;999.90;;;;;;;;;;5076854;28;20075;-90
2023/12/08 12:59:06;;;;;;;1999.90;999.90;;;;;;;;;;5077533;28;20152;-92
2023/12/08 13:01:34;;;;;;;1999.90;999.90;;;;;;;;;;5087016;28;20104;-90
2023/12/08 13:04:03;;;;;;;1999.90;999.90;;;;;;;;;;5084471;28;20057;-87
2023/12/08 13:06:32;;;;;;;1999.90;999.90;;;;;;;;;;5090314;28;20373;-91
2023/12/08 13:08:59;;;;;;;1999.90;999.90;;;;;;;;;;5079463;28;20133;-92
2023/12/08 13:11:27;;;;;;;1999.90;999.90;;;;;;;;;;5076803;28;20071;-89
2023/12/08 13:13:56;;;;;;;1999.90;999.90;;;;;;;;;;5074574;28;20052;-90
2023/12/08 13:16:22;;;;;;;1999.90;999.90;;;;;;;;;;5071629;28;20209;-92
2023/12/08 13:18:50;;;;;;;1999.90;999.90;;;;;;;;;;5080900;28;20048;-91
2023/12/08 13:21:17;;;;;;;1999.90;999.90;;;;;;;;;;5076396;28;20057;-91
2023/12/08 13:23:45;;;;;;;1999.90;999.90;;;;;;;;;;5072762;28;20040;-91
2023/12/08 13:26:12;;;;;;;1999.90;999.90;;;;;;;;;;5074462;28;20047;-90
2023/12/08 13:28:41;;;;;;;1999.90;999.90;;;;;;;;;;5079004;28;20046;-91
2023/12/08 13:31:08;;;;;;;1999.90;999.90;;;;;;;;;;5077518;28;20053;-88
2023/12/08 13:33:35;;;;;;;1999.90;999.90;;;;;;;;;;5083174;28;20052;-90
2023/12/08 13:36:02;;;;;;;1999.90;999.90;;;;;;;;;;5074724;28;20094;-90
2023/12/08 13:38:29;;;;;;;1999.90;999.90;;;;;;;;;;5078580;28;20083;-89
2023/12/08 13:40:55;;;;;;;1999.90;999.90;;;;;;;;;;5078268;28;20079;-91